Main page
METAR-TAF:

METAR-TAF

Airports :

Oil platform

Ekofisk, Norway

latitude: 56-33N, longitude: 003-15E, elevation: 3 m

Current weather observation

The report was made 36 minutes ago, at 21:20 UTC
Wind 30 kt from the West/Northwest
Temperature 6°C
Humidity 75%
Pressure 1000 hPa
Visibility 10 km or more
Scattered clouds at a height of 1500 ft, Cumulonimbus.
Broken clouds at a height of 3000 ft

METAR: ENLE 052120Z 29030KT 9999 SCT015CB BKN030 06/02 Q1000 W07/S5

Time: 23:56 (21:56 UTC)

Forecast

The report was made 1 hour and 56 minutes ago, at 20:00 UTC
Forecast valid from 05 at 21 UTC to 06 at 06 UTC
Wind 32 kt from the Northwest
Visibility 10 km or more
Scattered clouds at a height of 1500 ft
Broken clouds at a height of 3000 ft
light rain showers
Temporary
from 05 at 21 UTC to 05 at 24 UTC
Visibility: 4000 m
Broken clouds at a height of 1200 ft, Cumulonimbus.
rain showers

TAF: ENLE 052000Z 0521/0606 31032KT 9999 -SHRA SCT015 BKN030 TEMPO 0521/0524 4000 SHRA BKN012CB

Weather observations and forecasts of more than 4000 airports (METAR and TAF reports).

The available stations are represented by yellow and red dots on the map.

Hover mouse over dot to see the name of the station.

Then click to see weather observations and forecasts.

To change the map : click on the green buttons with a black cross to zoom in, on the green button with a dash to zoom out, or on the green arrows for adjacent maps.


METAR-TAF: